Time;durP1;ratioP1;P1;durP2;ratioP2;P2;SDS_P1;SDS_P2;PMS_P1;PMS_P2;Temp;Humidity;BMP_temperature;BMP_pressure;BME280_temperature;BME280_humidity;BME280_pressure;Samples;Min_cycle;Max_cycle;Signal;HPM_P1;HPM_P2
2021/07/29 00:00:19;;;;;;;0.80;0.80;;;;;;;;;;4994673;28;20058;-54
2021/07/29 00:02:46;;;;;;;0.98;0.88;;;;;;;;;;5003243;28;20406;-56
2021/07/29 00:05:13;;;;;;;0.93;0.90;;;;;;;;;;5004916;28;20494;-56
2021/07/29 00:07:40;;;;;;;2.05;1.00;;;;;;;;;;5010160;28;20038;-56
2021/07/29 00:10:06;;;;;;;1.35;1.05;;;;;;;;;;5008267;28;20088;-56
2021/07/29 00:12:33;;;;;;;0.98;0.98;;;;;;;;;;4996066;28;20069;-62
2021/07/29 00:15:00;;;;;;;1.00;1.00;;;;;;;;;;5005485;28;20053;-56
2021/07/29 00:17:29;;;;;;;2.25;0.85;;;;;;;;;;4997976;28;20053;-56
2021/07/29 00:19:56;;;;;;;1.38;1.08;;;;;;;;;;5002907;28;20038;-55
2021/07/29 00:22:23;;;;;;;1.38;0.90;;;;;;;;;;5009761;28;20128;-56
2021/07/29 00:24:50;;;;;;;1.35;1.00;;;;;;;;;;5013056;28;20034;-56
2021/07/29 00:27:16;;;;;;;3.83;1.73;;;;;;;;;;5011466;28;20062;-52
2021/07/29 00:29:43;;;;;;;1.00;1.00;;;;;;;;;;5010204;28;20042;-55
2021/07/29 00:32:10;;;;;;;1.00;1.00;;;;;;;;;;5012133;28;20070;-56
2021/07/29 00:34:37;;;;;;;2.95;1.73;;;;;;;;;;5010429;28;20402;-55
2021/07/29 00:37:04;;;;;;;1.30;1.00;;;;;;;;;;5011443;28;20034;-56
2021/07/29 00:39:31;;;;;;;1.13;1.02;;;;;;;;;;5010399;28;20053;-55
2021/07/29 00:41:58;;;;;;;1.00;1.00;;;;;;;;;;5010135;28;20126;-54
2021/07/29 00:44:24;;;;;;;0.90;0.90;;;;;;;;;;5002193;28;20042;-56
2021/07/29 00:46:51;;;;;;;1.75;1.00;;;;;;;;;;5009904;28;20470;-56
2021/07/29 00:49:18;;;;;;;3.30;1.00;;;;;;;;;;5008930;28;20510;-55
2021/07/29 00:51:45;;;;;;;1.10;1.00;;;;;;;;;;5012580;28;20513;-54
2021/07/29 00:54:12;;;;;;;1.30;0.90;;;;;;;;;;5009993;28;20050;-56
2021/07/29 00:56:40;;;;;;;1.52;0.85;;;;;;;;;;5000689;28;20129;-56
2021/07/29 00:59:07;;;;;;;0.90;0.90;;;;;;;;;;5008685;28;20096;-56
2021/07/29 01:01:33;;;;;;;0.93;0.90;;;;;;;;;;5006248;28;20073;-56
2021/07/29 01:04:00;;;;;;;1.13;1.02;;;;;;;;;;5006866;28;20479;-56
2021/07/29 01:06:27;;;;;;;1.50;1.05;;;;;;;;;;5003468;28;20034;-54
2021/07/29 01:09:09;;;;;;;1.00;1.00;;;;;;;;;;5011664;28;20044;-56
2021/07/29 01:11:37;;;;;;;1.33;1.10;;;;;;;;;;5005940;28;20081;-55
2021/07/29 01:14:04;;;;;;;1.73;1.10;;;;;;;;;;5006569;28;20125;-55
2021/07/29 01:16:31;;;;;;;1.17;1.17;;;;;;;;;;5009623;28;20049;-56
2021/07/29 01:18:58;;;;;;;3.50;1.00;;;;;;;;;;5008915;28;20043;-55
2021/07/29 01:21:45;;;;;;;2.35;0.98;;;;;;;;;;4995645;28;20046;-55
2021/07/29 01:24:12;;;;;;;1.02;1.02;;;;;;;;;;5011050;28;20037;-56
2021/07/29 01:26:39;;;;;;;1.58;1.10;;;;;;;;;;5010496;28;20237;-55
2021/07/29 01:29:05;;;;;;;1.15;1.15;;;;;;;;;;5009835;28;20042;-55
2021/07/29 01:31:32;;;;;;;1.92;1.23;;;;;;;;;;5008483;28;20442;-55
2021/07/29 01:33:59;;;;;;;2.35;1.02;;;;;;;;;;5008562;28;20690;-55
2021/07/29 01:36:26;;;;;;;2.67;1.00;;;;;;;;;;5011601;28;20061;-56
2021/07/29 01:38:52;;;;;;;1.13;1.13;;;;;;;;;;5008153;28;20037;-55
2021/07/29 01:41:19;;;;;;;2.47;1.27;;;;;;;;;;5012538;28;20570;-56
2021/07/29 01:43:46;;;;;;;1.10;1.00;;;;;;;;;;5010234;28;20104;-57
2021/07/29 01:46:13;;;;;;;1.00;1.00;;;;;;;;;;5009490;28;20038;-57
2021/07/29 01:48:39;;;;;;;1.52;1.40;;;;;;;;;;5008014;28;20584;-56
2021/07/29 01:51:10;;;;;;;1.02;1.02;;;;;;;;;;5010710;28;20091;-56
2021/07/29 01:53:47;;;;;;;1.70;1.10;;;;;;;;;;4967639;28;20060;-56
2021/07/29 01:56:14;;;;;;;1.38;1.27;;;;;;;;;;5009772;28;20569;-54
2021/07/29 01:58:41;;;;;;;3.35;1.10;;;;;;;;;;5009106;28;20069;-57
2021/07/29 02:01:08;;;;;;;1.65;1.50;;;;;;;;;;5007650;28;20533;-54
2021/07/29 02:03:37;;;;;;;1.38;1.10;;;;;;;;;;5008689;28;20097;-56
2021/07/29 02:06:04;;;;;;;3.10;1.52;;;;;;;;;;5009711;28;20029;-56
2021/07/29 02:08:31;;;;;;;1.55;1.20;;;;;;;;;;5008909;28;20034;-57
2021/07/29 02:11:03;;;;;;;1.10;1.10;;;;;;;;;;5007943;28;20053;-55
2021/07/29 02:13:30;;;;;;;1.10;1.00;;;;;;;;;;5011679;28;20447;-56
2021/07/29 02:15:57;;;;;;;1.27;1.10;;;;;;;;;;5005680;28;20053;-56
2021/07/29 02:18:23;;;;;;;2.00;1.10;;;;;;;;;;5002708;28;20049;-55
2021/07/29 02:20:50;;;;;;;1.40;1.30;;;;;;;;;;5010066;28;20100;-56
2021/07/29 02:23:17;;;;;;;4.45;1.20;;;;;;;;;;5008723;28;20038;-55
2021/07/29 02:25:44;;;;;;;1.50;1.50;;;;;;;;;;5010597;28;20533;-56
2021/07/29 02:28:10;;;;;;;3.45;1.10;;;;;;;;;;5009660;28;20462;-56
2021/07/29 02:30:37;;;;;;;1.95;1.42;;;;;;;;;;5010044;28;20073;-56
2021/07/29 02:33:04;;;;;;;1.25;1.17;;;;;;;;;;5004069;28;20045;-55
2021/07/29 02:35:31;;;;;;;1.08;1.08;;;;;;;;;;5002015;28;21650;-56
2021/07/29 02:37:57;;;;;;;1.17;1.17;;;;;;;;;;5000921;28;20128;-53
2021/07/29 02:40:24;;;;;;;1.40;1.30;;;;;;;;;;5008152;28;20042;-55
2021/07/29 02:42:51;;;;;;;3.53;1.77;;;;;;;;;;5007640;28;20099;-56
2021/07/29 02:45:18;;;;;;;1.83;1.65;;;;;;;;;;4999269;28;20114;-54
2021/07/29 02:47:45;;;;;;;1.48;1.38;;;;;;;;;;5006352;28;20033;-56
2021/07/29 02:50:12;;;;;;;1.45;1.10;;;;;;;;;;4999499;28;20498;-56
2021/07/29 02:52:41;;;;;;;1.25;1.15;;;;;;;;;;5008957;28;20818;-55
2021/07/29 02:55:08;;;;;;;5.32;1.42;;;;;;;;;;5008908;28;20052;-55
2021/07/29 02:57:36;;;;;;;1.85;1.40;;;;;;;;;;5000530;28;20494;-57
2021/07/29 03:00:03;;;;;;;1.33;1.33;;;;;;;;;;5008845;28;20034;-55
2021/07/29 03:02:30;;;;;;;1.88;1.20;;;;;;;;;;5008245;28;20433;-55
2021/07/29 03:04:56;;;;;;;3.90;1.67;;;;;;;;;;5008315;28;20923;-56
2021/07/29 03:07:23;;;;;;;2.88;1.20;;;;;;;;;;5003422;28;20490;-54
2021/07/29 03:09:50;;;;;;;1.23;1.23;;;;;;;;;;5009144;28;20050;-54
2021/07/29 03:12:17;;;;;;;1.60;1.50;;;;;;;;;;5006481;28;20065;-56
2021/07/29 03:14:46;;;;;;;2.17;1.30;;;;;;;;;;5008281;28;20128;-56
2021/07/29 03:17:12;;;;;;;1.55;1.45;;;;;;;;;;5009319;28;20534;-56
2021/07/29 03:19:39;;;;;;;1.63;1.52;;;;;;;;;;5000010;28;20577;-54
2021/07/29 03:22:06;;;;;;;2.13;1.75;;;;;;;;;;5009656;28;20567;-56
2021/07/29 03:24:34;;;;;;;1.45;1.40;;;;;;;;;;5008455;28;20088;-56
2021/07/29 03:27:01;;;;;;;1.70;1.65;;;;;;;;;;5007121;28;20130;-53
2021/07/29 03:29:29;;;;;;;2.35;1.33;;;;;;;;;;5000556;28;20121;-56
2021/07/29 03:31:55;;;;;;;1.38;1.30;;;;;;;;;;5002161;28;20065;-56
2021/07/29 03:34:22;;;;;;;1.55;1.45;;;;;;;;;;5009299;28;20405;-56
2021/07/29 03:36:49;;;;;;;4.30;1.67;;;;;;;;;;5006510;28;20117;-55
2021/07/29 03:39:16;;;;;;;2.13;1.92;;;;;;;;;;5006120;28;20419;-55
2021/07/29 03:41:42;;;;;;;1.40;1.35;;;;;;;;;;5009313;28;20116;-56
2021/07/29 03:44:09;;;;;;;1.98;1.40;;;;;;;;;;5007820;28;20034;-56
2021/07/29 03:46:36;;;;;;;3.78;1.60;;;;;;;;;;5005783;28;20046;-56
2021/07/29 03:49:03;;;;;;;2.95;1.38;;;;;;;;;;5008003;28;20092;-56
2021/07/29 03:51:30;;;;;;;2.75;1.42;;;;;;;;;;4997329;28;20045;-55
2021/07/29 03:53:57;;;;;;;1.35;1.30;;;;;;;;;;5010048;28;20042;-56
2021/07/29 03:56:24;;;;;;;1.17;1.17;;;;;;;;;;5011940;28;20525;-56
2021/07/29 03:58:51;;;;;;;1.85;1.63;;;;;;;;;;5001989;28;20576;-55
2021/07/29 04:01:18;;;;;;;5.32;1.80;;;;;;;;;;5012244;28;20092;-56
2021/07/29 04:03:48;;;;;;;2.60;2.17;;;;;;;;;;5011187;28;20065;-55
2021/07/29 04:06:18;;;;;;;3.00;1.58;;;;;;;;;;5012613;28;20120;-55
2021/07/29 04:08:44;;;;;;;1.92;1.83;;;;;;;;;;5008999;28;20040;-56
2021/07/29 04:11:11;;;;;;;3.50;1.77;;;;;;;;;;4995910;28;20080;-56
2021/07/29 04:13:38;;;;;;;2.05;1.70;;;;;;;;;;5013415;28;20084;-56
2021/07/29 04:16:05;;;;;;;2.00;1.85;;;;;;;;;;5011122;28;20453;-57
2021/07/29 04:18:32;;;;;;;1.83;1.73;;;;;;;;;;5001623;28;20139;-54
2021/07/29 04:20:59;;;;;;;5.97;2.22;;;;;;;;;;5009733;28;20048;-56
2021/07/29 04:23:26;;;;;;;3.00;1.98;;;;;;;;;;5009488;28;20081;-55
2021/07/29 04:25:53;;;;;;;3.25;1.52;;;;;;;;;;5011552;28;20120;-56
2021/07/29 04:28:20;;;;;;;3.53;1.73;;;;;;;;;;5010554;28;20092;-57
2021/07/29 04:30:47;;;;;;;3.05;1.75;;;;;;;;;;5012833;28;20038;-56
2021/07/29 04:33:13;;;;;;;2.78;1.92;;;;;;;;;;5011529;28;20671;-54
2021/07/29 04:35:40;;;;;;;2.15;2.05;;;;;;;;;;5011198;28;20326;-57
2021/07/29 04:38:07;;;;;;;2.50;1.70;;;;;;;;;;5002368;28;20519;-57
2021/07/29 04:40:33;;;;;;;2.65;1.67;;;;;;;;;;5010578;28;20129;-56
2021/07/29 04:43:00;;;;;;;4.20;2.67;;;;;;;;;;5012478;28;20433;-55
2021/07/29 04:45:27;;;;;;;2.72;2.03;;;;;;;;;;5011006;28;20038;-55
2021/07/29 04:47:53;;;;;;;1.77;1.67;;;;;;;;;;5009076;28;20038;-55
2021/07/29 04:50:20;;;;;;;3.63;1.90;;;;;;;;;;5004025;28;20490;-56
2021/07/29 04:52:50;;;;;;;1.75;1.67;;;;;;;;;;5011577;28;20030;-54
2021/07/29 04:55:16;;;;;;;3.05;2.70;;;;;;;;;;5011651;28;20068;-57
2021/07/29 04:57:43;;;;;;;1.65;1.55;;;;;;;;;;5011075;28;20045;-54
2021/07/29 05:00:10;;;;;;;3.35;1.92;;;;;;;;;;5010492;28;20477;-55
2021/07/29 05:02:37;;;;;;;2.33;2.22;;;;;;;;;;5003836;28;20070;-55
2021/07/29 05:05:04;;;;;;;2.03;1.90;;;;;;;;;;5007667;28;20034;-53
2021/07/29 05:07:31;;;;;;;3.83;2.65;;;;;;;;;;5009759;28;20146;-57
2021/07/29 05:09:59;;;;;;;3.53;2.22;;;;;;;;;;5011552;28;20042;-55
2021/07/29 05:12:25;;;;;;;2.05;1.95;;;;;;;;;;5011309;28;20037;-56
2021/07/29 05:14:56;;;;;;;2.35;1.73;;;;;;;;;;4997652;28;20561;-57
2021/07/29 05:17:23;;;;;;;2.28;2.03;;;;;;;;;;5006429;28;20045;-53
2021/07/29 05:19:50;;;;;;;4.40;2.28;;;;;;;;;;5001377;28;20554;-59
2021/07/29 05:22:17;;;;;;;2.83;2.72;;;;;;;;;;5016282;28;20568;-58
2021/07/29 05:24:44;;;;;;;2.05;1.95;;;;;;;;;;5010772;28;20542;-58
2021/07/29 05:27:11;;;;;;;2.17;2.08;;;;;;;;;;5010215;28;20038;-58
2021/07/29 05:29:38;;;;;;;2.65;2.55;;;;;;;;;;5008216;28;20038;-58
2021/07/29 05:32:04;;;;;;;2.22;2.13;;;;;;;;;;4995660;28;20061;-59
2021/07/29 05:34:32;;;;;;;2.22;2.13;;;;;;;;;;5012269;28;20564;-59
2021/07/29 05:36:59;;;;;;;2.15;2.05;;;;;;;;;;5010009;28;20373;-59
2021/07/29 05:39:26;;;;;;;6.75;2.72;;;;;;;;;;5010499;28;20137;-59
2021/07/29 05:41:53;;;;;;;5.20;2.58;;;;;;;;;;5005882;28;20046;-59
2021/07/29 05:44:20;;;;;;;2.20;2.00;;;;;;;;;;4996848;28;20042;-59
2021/07/29 05:46:46;;;;;;;3.22;2.20;;;;;;;;;;4999873;28;20062;-59
2021/07/29 05:49:13;;;;;;;2.55;2.45;;;;;;;;;;5003151;28;20034;-59
2021/07/29 05:51:40;;;;;;;7.60;2.17;;;;;;;;;;5003096;28;20062;-59
2021/07/29 05:54:07;;;;;;;2.05;1.83;;;;;;;;;;5005023;28;20112;-59
2021/07/29 05:56:33;;;;;;;5.97;2.10;;;;;;;;;;4997951;28;20088;-59
2021/07/29 05:59:00;;;;;;;2.50;2.40;;;;;;;;;;5011251;28;20033;-59
2021/07/29 06:01:27;;;;;;;3.92;2.13;;;;;;;;;;5009244;28;20095;-59
2021/07/29 06:03:55;;;;;;;3.08;2.88;;;;;;;;;;5009896;28;20033;-58
2021/07/29 06:06:23;;;;;;;3.72;2.05;;;;;;;;;;5005032;28;20105;-59
2021/07/29 06:08:53;;;;;;;6.07;2.72;;;;;;;;;;5008595;28;20493;-59
2021/07/29 06:11:20;;;;;;;3.47;2.13;;;;;;;;;;4996761;28;20041;-59
2021/07/29 06:13:46;;;;;;;2.30;2.20;;;;;;;;;;5006824;28;20030;-59
2021/07/29 06:16:13;;;;;;;2.55;2.35;;;;;;;;;;5008118;28;20044;-59
2021/07/29 06:18:48;;;;;;;2.08;1.88;;;;;;;;;;5003583;28;20093;-59
2021/07/29 06:21:15;;;;;;;5.50;2.13;;;;;;;;;;5005458;28;20038;-59
2021/07/29 06:23:42;;;;;;;3.25;1.67;;;;;;;;;;4995418;28;20231;-60
2021/07/29 06:26:11;;;;;;;2.17;2.08;;;;;;;;;;5008627;28;20057;-60
2021/07/29 06:28:39;;;;;;;1.60;1.50;;;;;;;;;;5009599;28;20052;-60
2021/07/29 06:31:07;;;;;;;2.20;1.50;;;;;;;;;;5011394;28;20366;-60
2021/07/29 06:33:33;;;;;;;1.77;1.67;;;;;;;;;;5008200;28;20062;-59
2021/07/29 06:36:02;;;;;;;1.52;1.42;;;;;;;;;;4998350;28;20060;-60
2021/07/29 06:38:29;;;;;;;2.15;1.38;;;;;;;;;;5003745;28;20080;-60
2021/07/29 06:40:56;;;;;;;2.60;1.65;;;;;;;;;;5009767;28;20087;-60
2021/07/29 06:43:23;;;;;;;2.67;2.08;;;;;;;;;;5008850;28;20063;-60
2021/07/29 06:45:49;;;;;;;3.90;1.80;;;;;;;;;;5009146;28;20116;-60
2021/07/29 06:48:17;;;;;;;3.00;1.75;;;;;;;;;;4992316;28;20069;-60
2021/07/29 06:50:43;;;;;;;2.45;1.60;;;;;;;;;;5003545;28;20073;-60
2021/07/29 06:53:10;;;;;;;4.10;1.40;;;;;;;;;;4996921;28;20113;-60
2021/07/29 06:55:37;;;;;;;3.95;1.52;;;;;;;;;;5006472;28;20066;-60
2021/07/29 06:58:04;;;;;;;2.67;1.30;;;;;;;;;;5008770;28;20050;-60
2021/07/29 07:00:31;;;;;;;2.28;1.60;;;;;;;;;;4992445;28;20439;-60
2021/07/29 07:02:59;;;;;;;1.90;1.50;;;;;;;;;;5010012;28;20662;-59
2021/07/29 07:05:25;;;;;;;1.65;1.55;;;;;;;;;;5007988;28;20061;-60
2021/07/29 07:07:52;;;;;;;1.10;1.10;;;;;;;;;;4996349;28;20030;-59
2021/07/29 07:10:19;;;;;;;1.40;1.30;;;;;;;;;;5005530;28;20042;-59
2021/07/29 07:12:46;;;;;;;3.83;1.10;;;;;;;;;;5007323;28;20494;-60
2021/07/29 07:15:13;;;;;;;1.63;1.52;;;;;;;;;;5010565;28;20175;-60
2021/07/29 07:17:40;;;;;;;3.97;2.55;;;;;;;;;;5008314;28;20045;-60
2021/07/29 07:20:07;;;;;;;4.40;1.35;;;;;;;;;;5008218;28;20038;-60
2021/07/29 07:22:35;;;;;;;1.52;1.42;;;;;;;;;;5006858;28;20041;-60
2021/07/29 07:25:02;;;;;;;3.20;1.10;;;;;;;;;;5008547;28;20034;-60
2021/07/29 07:27:29;;;;;;;4.38;1.20;;;;;;;;;;5000343;28;20410;-60
2021/07/29 07:29:55;;;;;;;1.85;1.15;;;;;;;;;;5004071;28;20093;-60
2021/07/29 07:32:22;;;;;;;1.27;1.20;;;;;;;;;;4997032;28;20073;-60
2021/07/29 07:34:49;;;;;;;5.18;1.30;;;;;;;;;;5006836;28;20109;-60
2021/07/29 07:37:18;;;;;;;1.17;1.10;;;;;;;;;;4999159;28;20128;-60
2021/07/29 07:39:45;;;;;;;2.42;1.42;;;;;;;;;;5010536;28;20105;-59
2021/07/29 07:42:12;;;;;;;2.75;1.20;;;;;;;;;;5013144;28;20494;-60
2021/07/29 07:44:38;;;;;;;3.90;1.30;;;;;;;;;;5013578;28;20069;-60
2021/07/29 07:47:05;;;;;;;1.00;0.90;;;;;;;;;;5012471;28;20126;-60
2021/07/29 07:49:33;;;;;;;1.67;0.90;;;;;;;;;;5011326;28;20104;-60
2021/07/29 07:52:00;;;;;;;1.90;1.30;;;;;;;;;;5014031;28;20478;-60
2021/07/29 07:54:27;;;;;;;3.00;1.00;;;;;;;;;;5008640;28;20049;-60
2021/07/29 07:56:54;;;;;;;1.63;1.00;;;;;;;;;;5007081;28;20057;-60
2021/07/29 07:59:21;;;;;;;3.53;1.10;;;;;;;;;;5006345;28;20042;-60
2021/07/29 08:01:47;;;;;;;1.98;1.05;;;;;;;;;;5001972;28;20041;-60
2021/07/29 08:04:15;;;;;;;1.90;0.98;;;;;;;;;;5014093;28;20038;-60
2021/07/29 08:06:42;;;;;;;2.85;0.93;;;;;;;;;;5011231;28;20156;-61
2021/07/29 08:09:08;;;;;;;0.85;0.85;;;;;;;;;;5005556;28;20046;-61
2021/07/29 08:11:35;;;;;;;1.95;1.00;;;;;;;;;;5013679;28;20052;-60
2021/07/29 08:14:02;;;;;;;2.10;1.35;;;;;;;;;;5012547;28;20077;-60
2021/07/29 08:16:29;;;;;;;1.58;1.48;;;;;;;;;;4997170;28;20368;-60
2021/07/29 08:18:56;;;;;;;1.17;0.90;;;;;;;;;;5007203;28;20118;-61
2021/07/29 08:21:23;;;;;;;2.13;1.17;;;;;;;;;;5011737;28;20046;-61
2021/07/29 08:23:50;;;;;;;2.45;1.20;;;;;;;;;;5004212;28;20101;-61
2021/07/29 08:26:17;;;;;;;2.63;0.95;;;;;;;;;;5004453;28;20500;-61
2021/07/29 08:28:44;;;;;;;2.72;1.17;;;;;;;;;;4999421;28;20073;-61
2021/07/29 08:31:11;;;;;;;0.90;0.90;;;;;;;;;;5008610;28;20108;-60
2021/07/29 08:33:38;;;;;;;1.40;0.90;;;;;;;;;;5009870;28;20113;-61
2021/07/29 08:36:05;;;;;;;2.55;0.93;;;;;;;;;;5013008;28;20046;-61
2021/07/29 08:38:31;;;;;;;1.55;0.93;;;;;;;;;;5011625;28;20053;-59
2021/07/29 08:40:58;;;;;;;3.33;0.88;;;;;;;;;;5005955;28;20042;-61
2021/07/29 08:43:28;;;;;;;2.80;1.00;;;;;;;;;;5007469;28;20066;-61
2021/07/29 08:45:54;;;;;;;0.80;0.80;;;;;;;;;;4998125;28;20092;-61
2021/07/29 08:48:26;;;;;;;0.90;0.90;;;;;;;;;;5013198;28;20077;-61
2021/07/29 08:50:53;;;;;;;1.25;1.08;;;;;;;;;;5011509;28;20149;-60
2021/07/29 08:53:20;;;;;;;2.08;0.90;;;;;;;;;;5007678;28;20088;-61
2021/07/29 08:55:48;;;;;;;2.95;0.82;;;;;;;;;;5005294;28;20050;-61
2021/07/29 08:58:16;;;;;;;1.13;1.00;;;;;;;;;;5000330;28;20065;-61
2021/07/29 09:01:01;;;;;;;2.45;0.80;;;;;;;;;;5025969;28;20073;-61
2021/07/29 09:03:29;;;;;;;1.27;0.80;;;;;;;;;;5007721;28;20100;-61
2021/07/29 09:05:59;;;;;;;0.90;0.80;;;;;;;;;;4997298;28;20165;-61
2021/07/29 09:08:27;;;;;;;15.27;1.50;;;;;;;;;;5001876;28;20535;-62
2021/07/29 09:10:55;;;;;;;1.48;0.95;;;;;;;;;;5004308;28;20502;-60
2021/07/29 09:13:22;;;;;;;1.77;0.90;;;;;;;;;;5006652;28;20066;-61
2021/07/29 09:16:09;;;;;;;0.95;0.82;;;;;;;;;;5005660;28;20076;-61
2021/07/29 09:18:36;;;;;;;0.80;0.80;;;;;;;;;;4999691;28;20045;-61
2021/07/29 09:21:12;;;;;;;0.77;0.77;;;;;;;;;;5013068;28;20553;-61
2021/07/29 09:23:39;;;;;;;1.42;0.70;;;;;;;;;;5007170;28;20092;-61
2021/07/29 09:26:06;;;;;;;0.77;0.77;;;;;;;;;;4995651;28;20043;-61
2021/07/29 09:28:32;;;;;;;2.70;0.90;;;;;;;;;;5004780;28;20089;-61
2021/07/29 09:31:13;;;;;;;1.20;0.80;;;;;;;;;;5004448;28;20042;-61
2021/07/29 09:34:00;;;;;;;1.65;0.80;;;;;;;;;;5010595;28;20093;-61
2021/07/29 09:36:34;;;;;;;0.70;0.70;;;;;;;;;;5011779;28;20042;-61
2021/07/29 09:39:20;;;;;;;0.75;0.75;;;;;;;;;;5009537;28;20038;-61
2021/07/29 09:41:49;;;;;;;0.80;0.80;;;;;;;;;;5001731;28;20101;-61
2021/07/29 09:44:36;;;;;;;1.67;0.80;;;;;;;;;;5006132;28;20050;-62
2021/07/29 09:47:03;;;;;;;0.90;0.70;;;;;;;;;;5003623;28;20038;-62
2021/07/29 09:49:30;;;;;;;1.38;0.70;;;;;;;;;;5011631;28;20038;-61
2021/07/29 09:51:58;;;;;;;1.85;0.70;;;;;;;;;;5008361;28;20049;-62
2021/07/29 09:54:25;;;;;;;0.90;0.90;;;;;;;;;;5008742;28;20125;-61
2021/07/29 09:56:51;;;;;;;1.25;0.70;;;;;;;;;;5004226;28;20041;-62
2021/07/29 09:59:18;;;;;;;1.38;0.98;;;;;;;;;;5010521;28;20061;-61
2021/07/29 10:01:45;;;;;;;1.60;0.70;;;;;;;;;;5010755;28;20081;-61
2021/07/29 10:04:13;;;;;;;2.08;1.00;;;;;;;;;;5004458;28;20043;-61
2021/07/29 10:06:40;;;;;;;2.85;0.70;;;;;;;;;;4998699;28;20038;-61
2021/07/29 10:09:09;;;;;;;2.95;0.70;;;;;;;;;;5009992;28;20072;-61
2021/07/29 10:11:38;;;;;;;2.92;0.80;;;;;;;;;;5005832;28;20037;-60
2021/07/29 10:14:05;;;;;;;1.63;0.70;;;;;;;;;;5003855;28;20042;-61
2021/07/29 10:16:47;;;;;;;2.05;0.60;;;;;;;;;;5011215;28;20050;-62
2021/07/29 10:19:17;;;;;;;3.42;0.80;;;;;;;;;;5008494;28;20050;-60
2021/07/29 10:21:45;;;;;;;1.75;0.70;;;;;;;;;;5010474;28;20074;-61
2021/07/29 10:24:13;;;;;;;0.88;0.70;;;;;;;;;;5010881;28;20121;-61
2021/07/29 10:26:59;;;;;;;0.73;0.70;;;;;;;;;;5009089;28;20030;-61
2021/07/29 10:29:27;;;;;;;0.60;0.60;;;;;;;;;;5006554;28;20107;-61
2021/07/29 10:31:57;;;;;;;2.38;0.63;;;;;;;;;;5008683;28;20125;-61
2021/07/29 10:34:25;;;;;;;1.05;0.80;;;;;;;;;;4993609;28;20070;-60
2021/07/29 10:36:52;;;;;;;2.38;0.80;;;;;;;;;;5002547;28;20066;-60
2021/07/29 10:39:20;;;;;;;1.08;0.60;;;;;;;;;;4999830;28;20495;-61
2021/07/29 10:41:48;;;;;;;5.30;0.70;;;;;;;;;;5006091;28;20038;-62
2021/07/29 10:44:34;;;;;;;1.60;0.65;;;;;;;;;;5003170;28;20076;-62
2021/07/29 10:47:01;;;;;;;6.88;0.80;;;;;;;;;;5012547;28;20066;-61
2021/07/29 10:49:44;;;;;;;4.10;0.80;;;;;;;;;;5010884;28;20042;-61
2021/07/29 10:52:11;;;;;;;2.45;0.60;;;;;;;;;;5010690;28;20042;-61
2021/07/29 10:54:39;;;;;;;2.47;0.70;;;;;;;;;;5009315;28;20505;-61
2021/07/29 10:57:07;;;;;;;1.23;0.85;;;;;;;;;;5015924;28;20116;-61
2021/07/29 10:59:34;;;;;;;0.70;0.70;;;;;;;;;;4999126;28;20490;-61
2021/07/29 11:02:03;;;;;;;0.60;0.60;;;;;;;;;;5000004;28;20101;-61
2021/07/29 11:04:31;;;;;;;6.32;0.70;;;;;;;;;;5006933;28;20073;-61
2021/07/29 11:07:05;;;;;;;1.80;0.60;;;;;;;;;;5008079;28;20034;-62
2021/07/29 11:09:32;;;;;;;1.50;0.60;;;;;;;;;;4998877;28;20108;-61
2021/07/29 11:12:00;;;;;;;0.95;0.60;;;;;;;;;;5005806;28;20076;-61
2021/07/29 11:14:29;;;;;;;11.38;1.17;;;;;;;;;;5009731;28;20092;-61
2021/07/29 11:16:57;;;;;;;4.82;0.70;;;;;;;;;;5003522;28;20034;-61
2021/07/29 11:19:24;;;;;;;1.17;0.73;;;;;;;;;;4999115;28;20076;-61
2021/07/29 11:22:07;;;;;;;0.70;0.70;;;;;;;;;;4995056;28;20043;-61
2021/07/29 11:24:34;;;;;;;4.45;0.65;;;;;;;;;;5006582;28;20046;-61
2021/07/29 11:27:02;;;;;;;0.60;0.60;;;;;;;;;;5003704;28;20081;-61
2021/07/29 11:29:30;;;;;;;4.00;0.80;;;;;;;;;;5010771;28;21146;-61
2021/07/29 11:32:01;;;;;;;2.90;0.63;;;;;;;;;;5002751;28;20042;-61
2021/07/29 11:34:29;;;;;;;0.55;0.52;;;;;;;;;;4991397;28;20104;-61
2021/07/29 11:36:56;;;;;;;1.63;0.60;;;;;;;;;;5004236;28;20054;-62
2021/07/29 11:39:27;;;;;;;1.52;0.80;;;;;;;;;;5006252;28;20108;-62
2021/07/29 11:41:56;;;;;;;1.55;0.60;;;;;;;;;;5009298;28;20481;-62
2021/07/29 11:44:35;;;;;;;4.55;0.60;;;;;;;;;;5003476;28;20410;-62
2021/07/29 11:47:02;;;;;;;1.70;0.70;;;;;;;;;;5010878;28;20030;-62
2021/07/29 11:49:29;;;;;;;1.30;0.60;;;;;;;;;;5001369;28;20491;-61
2021/07/29 11:52:10;;;;;;;0.52;0.50;;;;;;;;;;5000416;28;20076;-62
2021/07/29 11:54:37;;;;;;;1.10;0.65;;;;;;;;;;5008404;28;20398;-62
2021/07/29 11:57:05;;;;;;;1.05;0.60;;;;;;;;;;5004289;28;20030;-63
2021/07/29 11:59:42;;;;;;;1.30;0.70;;;;;;;;;;5002774;28;20100;-61
2021/07/29 12:02:09;;;;;;;2.15;0.60;;;;;;;;;;5008611;28;20546;-62
2021/07/29 12:04:40;;;;;;;1.50;0.50;;;;;;;;;;5007943;28;21010;-61
2021/07/29 12:07:08;;;;;;;1.00;0.60;;;;;;;;;;4998272;28;20410;-61
2021/07/29 12:09:35;;;;;;;3.65;0.55;;;;;;;;;;5009293;28;20441;-62
2021/07/29 12:12:02;;;;;;;0.95;0.50;;;;;;;;;;5006408;28;20073;-62
2021/07/29 12:14:29;;;;;;;0.70;0.50;;;;;;;;;;5009030;28;20129;-62
2021/07/29 12:16:55;;;;;;;0.55;0.55;;;;;;;;;;5009949;28;20829;-62
2021/07/29 12:19:23;;;;;;;0.60;0.60;;;;;;;;;;5010585;28;20085;-61
2021/07/29 12:21:50;;;;;;;0.50;0.50;;;;;;;;;;5013549;28;20585;-62
2021/07/29 12:24:17;;;;;;;1.10;0.60;;;;;;;;;;5010591;28;20041;-62
2021/07/29 12:27:02;;;;;;;1.60;0.50;;;;;;;;;;5012763;28;20179;-62
2021/07/29 12:29:38;;;;;;;1.00;0.50;;;;;;;;;;5006367;28;20027;-62
2021/07/29 12:32:16;;;;;;;2.00;0.50;;;;;;;;;;5002940;28;20042;-62
2021/07/29 12:34:42;;;;;;;0.50;0.50;;;;;;;;;;5005372;28;20069;-62
2021/07/29 12:37:09;;;;;;;1.38;0.60;;;;;;;;;;5008729;28;20038;-62
2021/07/29 12:39:36;;;;;;;0.57;0.57;;;;;;;;;;5012050;28;20061;-62
2021/07/29 12:42:20;;;;;;;1.95;0.50;;;;;;;;;;5002637;28;20042;-62
2021/07/29 12:44:57;;;;;;;0.68;0.50;;;;;;;;;;5011023;28;20080;-62
2021/07/29 12:47:24;;;;;;;1.40;0.60;;;;;;;;;;5004253;28;20035;-62
2021/07/29 12:49:51;;;;;;;0.68;0.55;;;;;;;;;;5016622;28;20068;-62
2021/07/29 12:52:22;;;;;;;0.50;0.50;;;;;;;;;;5020799;28;20062;-62
2021/07/29 12:55:01;;;;;;;0.82;0.70;;;;;;;;;;4997122;28;20049;-62
2021/07/29 12:57:28;;;;;;;2.25;0.60;;;;;;;;;;5007691;28;20145;-62
2021/07/29 12:59:55;;;;;;;0.50;0.50;;;;;;;;;;5006227;28;20042;-61
2021/07/29 13:02:22;;;;;;;2.65;0.50;;;;;;;;;;5008077;28;20065;-61
2021/07/29 13:04:50;;;;;;;1.40;0.50;;;;;;;;;;5011396;28;20030;-62
2021/07/29 13:07:16;;;;;;;2.67;0.70;;;;;;;;;;4995033;28;20509;-60
2021/07/29 13:09:43;;;;;;;0.60;0.50;;;;;;;;;;5009646;28;20049;-62
2021/07/29 13:12:10;;;;;;;0.50;0.50;;;;;;;;;;5010158;28;20046;-61
2021/07/29 13:14:37;;;;;;;1.20;0.50;;;;;;;;;;5011681;28;20042;-62
2021/07/29 13:17:04;;;;;;;0.50;0.50;;;;;;;;;;5010093;28;20041;-62
2021/07/29 13:19:32;;;;;;;0.73;0.50;;;;;;;;;;5003283;28;20046;-61
2021/07/29 13:21:59;;;;;;;2.30;0.50;;;;;;;;;;5005129;28;20125;-62
2021/07/29 13:24:26;;;;;;;0.47;0.40;;;;;;;;;;5000343;28;20033;-62
2021/07/29 13:26:53;;;;;;;0.60;0.50;;;;;;;;;;5010754;28;20125;-62
2021/07/29 13:29:20;;;;;;;0.57;0.50;;;;;;;;;;5010720;28;20038;-60
2021/07/29 13:31:46;;;;;;;0.47;0.47;;;;;;;;;;5010243;28;20034;-61
2021/07/29 13:34:13;;;;;;;0.50;0.50;;;;;;;;;;5011653;28;20046;-62
2021/07/29 13:36:40;;;;;;;1.38;0.50;;;;;;;;;;5010923;28;20042;-62
2021/07/29 13:39:07;;;;;;;1.67;0.60;;;;;;;;;;4996409;28;20039;-62
2021/07/29 13:41:33;;;;;;;0.57;0.57;;;;;;;;;;5006753;28;20042;-62
2021/07/29 13:44:06;;;;;;;0.80;0.80;;;;;;;;;;5006169;28;20446;-61
2021/07/29 13:46:33;;;;;;;0.50;0.50;;;;;;;;;;5000835;28;20463;-60
2021/07/29 13:49:00;;;;;;;0.68;0.57;;;;;;;;;;5001850;28;20046;-60
2021/07/29 13:51:27;;;;;;;1.15;0.50;;;;;;;;;;4994195;28;20606;-60
2021/07/29 13:53:54;;;;;;;0.40;0.40;;;;;;;;;;5006201;28;20049;-62
2021/07/29 13:56:22;;;;;;;1.08;0.50;;;;;;;;;;4995320;28;20765;-62
2021/07/29 13:58:52;;;;;;;0.85;0.50;;;;;;;;;;5010984;28;20056;-61
2021/07/29 14:01:19;;;;;;;0.50;0.50;;;;;;;;;;5010007;28;20046;-62
2021/07/29 14:03:46;;;;;;;1.42;0.60;;;;;;;;;;5005104;28;20048;-62
2021/07/29 14:06:13;;;;;;;0.50;0.50;;;;;;;;;;5004613;28;20076;-61
2021/07/29 14:08:39;;;;;;;0.50;0.50;;;;;;;;;;4997902;28;20030;-61
2021/07/29 14:11:06;;;;;;;2.47;0.60;;;;;;;;;;5011511;28;20081;-62
2021/07/29 14:13:33;;;;;;;0.85;0.57;;;;;;;;;;5008651;28;20046;-62
2021/07/29 14:16:00;;;;;;;1.15;0.55;;;;;;;;;;4998591;28;20489;-61
2021/07/29 14:18:27;;;;;;;2.42;0.50;;;;;;;;;;5005139;28;20054;-61
2021/07/29 14:21:10;;;;;;;0.43;0.43;;;;;;;;;;4999262;28;20076;-60
2021/07/29 14:23:37;;;;;;;0.40;0.40;;;;;;;;;;5010611;28;20100;-62
2021/07/29 14:26:04;;;;;;;1.10;0.60;;;;;;;;;;5010150;28;20124;-60
2021/07/29 14:28:31;;;;;;;0.40;0.40;;;;;;;;;;5009255;28;20050;-61
2021/07/29 14:30:57;;;;;;;0.50;0.50;;;;;;;;;;5001527;28;20130;-61
2021/07/29 14:33:24;;;;;;;2.67;0.60;;;;;;;;;;5000912;28;20030;-62
2021/07/29 14:35:51;;;;;;;0.50;0.50;;;;;;;;;;5008486;28;20042;-62
2021/07/29 14:38:18;;;;;;;0.50;0.50;;;;;;;;;;5006115;28;20101;-61
2021/07/29 14:40:45;;;;;;;0.40;0.40;;;;;;;;;;4997005;28;20084;-62
2021/07/29 14:43:12;;;;;;;0.82;0.50;;;;;;;;;;5011235;28;20149;-61
2021/07/29 14:50:51;;;;;;;0.50;0.47;;;;;;;;;;5010591;28;20497;-61
2021/07/29 14:53:19;;;;;;;0.40;0.40;;;;;;;;;;5008538;28;20621;-62